createdAt,value
2022-07-26T00:02:56.633Z,3.60
2022-07-26T00:13:01.714Z,3.30
2022-07-26T00:23:01.331Z,3.40
2022-07-26T00:33:00.964Z,3.50
2022-07-26T00:43:00.631Z,3.30
2022-07-26T00:53:00.243Z,3.40
2022-07-26T01:03:05.372Z,3.10
2022-07-26T01:13:05.002Z,3.90
2022-07-26T01:23:04.649Z,3.70
2022-07-26T01:33:06.336Z,3.40
2022-07-26T01:43:03.910Z,3.60
2022-07-26T01:53:09.043Z,3.20
2022-07-26T02:03:08.776Z,3.50
2022-07-26T02:13:08.985Z,3.60
2022-07-26T02:23:07.925Z,3.10
2022-07-26T02:33:07.558Z,3.40
2022-07-26T02:43:07.180Z,3.70
2022-07-26T02:53:12.328Z,3.70
2022-07-26T03:03:11.981Z,3.60
2022-07-26T03:13:11.574Z,3.60
2022-07-26T03:23:11.197Z,3.40
2022-07-26T03:33:10.836Z,3.70
2022-07-26T03:43:10.597Z,3.10
2022-07-26T03:53:15.700Z,3.70
2022-07-26T04:03:15.342Z,3.80
2022-07-26T04:13:14.970Z,3.60
2022-07-26T04:23:14.602Z,4.30
2022-07-26T04:33:14.228Z,4.00
2022-07-26T04:43:15.440Z,4.40
2022-07-26T04:53:19.009Z,4.10
2022-07-26T05:03:18.705Z,4.20
2022-07-26T05:13:18.268Z,4.50
2022-07-26T05:23:17.891Z,5.50
2022-07-26T05:33:17.524Z,6.20
2022-07-26T05:43:17.152Z,5.90
2022-07-26T05:53:22.276Z,6.30
2022-07-26T06:03:21.953Z,7.60
2022-07-26T06:13:21.580Z,7.50
2022-07-26T06:23:34.397Z,8.20
2022-07-26T06:33:20.834Z,8.40
2022-07-26T06:43:20.472Z,8.80
2022-07-26T06:53:20.106Z,9.00
2022-07-26T07:03:25.249Z,8.80
2022-07-26T07:13:24.885Z,10.00
2022-07-26T07:23:24.518Z,12.20
2022-07-26T07:33:25.890Z,10.40
2022-07-26T07:43:23.794Z,11.00
2022-07-26T07:53:23.599Z,10.70
2022-07-26T08:03:38.348Z,11.50
2022-07-26T08:13:28.371Z,12.00
2022-07-26T08:23:28.027Z,11.00
2022-07-26T08:33:27.650Z,11.90
2022-07-26T08:43:27.287Z,10.90
2022-07-26T08:53:27.399Z,12.30
2022-07-26T09:03:32.580Z,10.60
2022-07-26T09:13:32.174Z,9.20
2022-07-26T09:23:31.834Z,8.70
2022-07-26T09:33:31.471Z,8.60
2022-07-26T09:43:31.108Z,7.40
2022-07-26T09:53:36.264Z,6.40
2022-07-26T10:03:35.897Z,6.10
2022-07-26T10:13:35.533Z,6.10
2022-07-26T10:23:35.167Z,6.90
2022-07-26T10:33:34.814Z,6.20
2022-07-26T10:43:41.348Z,6.20
2022-07-26T10:53:39.597Z,6.10
2022-07-26T11:03:39.256Z,5.50
2022-07-26T11:13:38.850Z,6.20
2022-07-26T11:23:38.508Z,5.90
2022-07-26T11:33:43.640Z,6.20
2022-07-26T11:43:43.265Z,5.30
2022-07-26T11:53:42.898Z,5.00
2022-07-26T12:03:42.545Z,5.80
2022-07-26T12:13:55.584Z,5.80
2022-07-26T12:23:47.647Z,5.70
2022-07-26T12:33:47.294Z,4.90
2022-07-26T12:43:49.090Z,4.70
2022-07-26T12:53:46.597Z,4.60
2022-07-26T13:03:51.903Z,5.00
2022-07-26T13:13:51.374Z,5.20
2022-07-26T13:23:50.990Z,4.60
2022-07-26T13:33:50.627Z,4.40
2022-07-26T13:43:50.522Z,4.50
2022-07-26T13:53:55.702Z,4.00
2022-07-26T14:03:55.295Z,4.10
2022-07-26T14:13:54.931Z,3.80
2022-07-26T14:23:54.569Z,3.90
2022-07-26T14:33:59.711Z,3.90
2022-07-26T14:43:59.339Z,3.90
2022-07-26T14:53:58.978Z,3.70
2022-07-26T15:03:58.633Z,4.30
2022-07-26T15:14:05.981Z,4.00
2022-07-26T15:24:03.396Z,4.20
2022-07-26T15:34:03.023Z,4.20
2022-07-26T15:44:02.667Z,4.00
2022-07-26T15:54:07.988Z,4.40
2022-07-26T16:04:07.589Z,4.40
2022-07-26T16:14:07.085Z,4.00
2022-07-26T16:24:07.632Z,3.90
2022-07-26T16:34:06.327Z,3.50
2022-07-26T16:44:11.452Z,3.50
2022-07-26T16:54:11.065Z,3.80
2022-07-26T17:04:10.685Z,3.50
2022-07-26T17:14:10.310Z,3.20
2022-07-26T17:24:10.249Z,3.50
2022-07-26T17:34:15.382Z,3.30
2022-07-26T17:44:15.018Z,3.50
2022-07-26T17:54:14.639Z,3.40
2022-07-26T18:04:14.253Z,3.80
2022-07-26T18:14:14.301Z,3.80
2022-07-26T18:24:19.417Z,4.20
2022-07-26T18:34:19.030Z,3.90
2022-07-26T18:44:18.663Z,3.70
2022-07-26T18:54:18.256Z,3.10
2022-07-26T19:04:18.087Z,3.50
2022-07-26T19:14:23.170Z,3.20
2022-07-26T19:24:22.802Z,2.90
2022-07-26T19:34:22.437Z,3.40
2022-07-26T19:44:22.075Z,3.40
2022-07-26T19:54:21.684Z,3.20
2022-07-26T20:04:26.828Z,3.40
2022-07-26T20:14:26.424Z,3.50
2022-07-26T20:24:26.032Z,3.70
2022-07-26T20:34:25.651Z,3.50
2022-07-26T20:44:28.317Z,4.10
2022-07-26T20:54:30.416Z,3.70
2022-07-26T21:04:30.030Z,3.60
2022-07-26T21:14:29.643Z,3.40
2022-07-26T21:24:29.285Z,3.60
2022-07-26T21:34:28.913Z,3.40
2022-07-26T21:44:34.009Z,3.90
2022-07-26T21:54:33.628Z,3.10
2022-07-26T22:04:33.259Z,3.40
2022-07-26T22:14:32.864Z,3.20
2022-07-26T22:24:32.485Z,3.50
2022-07-26T22:34:32.122Z,3.20
2022-07-26T22:44:37.250Z,3.30
2022-07-26T22:54:36.906Z,3.10
2022-07-26T23:04:36.529Z,3.40
2022-07-26T23:14:36.149Z,3.70
2022-07-26T23:24:35.770Z,3.30
2022-07-26T23:34:35.388Z,3.00
2022-07-26T23:44:40.515Z,3.40
2022-07-26T23:54:40.131Z,2.90
